Terminal Aerodrome Forecast
Issued by NWS

Current Version | Previous Version | Text Only | Print | Product List | Glossary On
Versions: 1 2 3 4 5 6 7 8 9 10 11 12 13 14 15 16 17 18 19
000
FTUS45 KFGZ 010552 AAA
TAFGCN
TAF AMD
KGCN 010552Z 0106/0206 VRB06KT P6SM VCTS SCT060CB BKN090
      TEMPO 0106/0107 VRB10G20KT 6SM -TSRA BKN050CB
     FM010800 VRB06KT P6SM SCT080
     FM011800 22010G18KT P6SM SCT070
     FM020300 VRB04KT P6SM SKC=

USA.gov is the U.S. government's official web portal to all federal, state and local government web resources and services.